sensor_id;sensor_type;location;lat;lon;timestamp;P1;durP1;ratioP1;P2;durP2;ratioP2
51358;SDS011;37448;51.588;7.248;2023-05-07T00:01:49;16.75;;;11.68;;
51358;SDS011;37448;51.588;7.248;2023-05-07T00:03:50;18.90;;;12.10;;
51358;SDS011;37448;51.588;7.248;2023-05-07T00:05:50;18.15;;;12.23;;
51358;SDS011;37448;51.588;7.248;2023-05-07T00:07:52;16.13;;;12.00;;
51358;SDS011;37448;51.588;7.248;2023-05-07T00:09:53;17.35;;;12.20;;
51358;SDS011;37448;51.588;7.248;2023-05-07T00:11:53;17.65;;;12.48;;
51358;SDS011;37448;51.588;7.248;2023-05-07T00:13:54;15.30;;;10.15;;
51358;SDS011;37448;51.588;7.248;2023-05-07T00:15:54;15.52;;;11.55;;
51358;SDS011;37448;51.588;7.248;2023-05-07T00:17:55;16.45;;;11.70;;
51358;SDS011;37448;51.588;7.248;2023-05-07T00:19:55;16.23;;;10.82;;
51358;SDS011;37448;51.588;7.248;2023-05-07T00:21:56;14.55;;;10.77;;
51358;SDS011;37448;51.588;7.248;2023-05-07T00:23:56;15.70;;;11.40;;
51358;SDS011;37448;51.588;7.248;2023-05-07T00:25:57;17.48;;;11.85;;
51358;SDS011;37448;51.588;7.248;2023-05-07T00:27:57;15.15;;;11.15;;
51358;SDS011;37448;51.588;7.248;2023-05-07T00:30:03;17.35;;;11.90;;
51358;SDS011;37448;51.588;7.248;2023-05-07T00:32:04;13.73;;;11.00;;
51358;SDS011;37448;51.588;7.248;2023-05-07T00:34:05;13.93;;;10.30;;
51358;SDS011;37448;51.588;7.248;2023-05-07T00:36:06;16.67;;;11.15;;
51358;SDS011;37448;51.588;7.248;2023-05-07T00:38:06;15.18;;;10.65;;
51358;SDS011;37448;51.588;7.248;2023-05-07T00:40:07;14.20;;;10.55;;
51358;SDS011;37448;51.588;7.248;2023-05-07T00:42:08;14.52;;;10.30;;
51358;SDS011;37448;51.588;7.248;2023-05-07T00:44:08;17.40;;;10.77;;
51358;SDS011;37448;51.588;7.248;2023-05-07T00:46:09;11.48;;;9.32;;
51358;SDS011;37448;51.588;7.248;2023-05-07T00:48:10;14.80;;;9.88;;
51358;SDS011;37448;51.588;7.248;2023-05-07T00:50:11;12.73;;;9.85;;
51358;SDS011;37448;51.588;7.248;2023-05-07T00:52:16;13.27;;;9.98;;
51358;SDS011;37448;51.588;7.248;2023-05-07T00:54:19;14.55;;;9.93;;
51358;SDS011;37448;51.588;7.248;2023-05-07T00:56:21;15.45;;;10.30;;
51358;SDS011;37448;51.588;7.248;2023-05-07T00:58:23;12.10;;;9.63;;
51358;SDS011;37448;51.588;7.248;2023-05-07T01:00:24;13.35;;;10.02;;
51358;SDS011;37448;51.588;7.248;2023-05-07T01:02:25;14.13;;;10.52;;
51358;SDS011;37448;51.588;7.248;2023-05-07T01:04:26;13.95;;;10.55;;
51358;SDS011;37448;51.588;7.248;2023-05-07T01:06:27;12.35;;;10.15;;
51358;SDS011;37448;51.588;7.248;2023-05-07T01:08:29;15.73;;;10.77;;
51358;SDS011;37448;51.588;7.248;2023-05-07T01:10:32;16.13;;;11.38;;
51358;SDS011;37448;51.588;7.248;2023-05-07T01:12:33;15.40;;;11.02;;
51358;SDS011;37448;51.588;7.248;2023-05-07T01:14:34;12.50;;;10.00;;
51358;SDS011;37448;51.588;7.248;2023-05-07T01:16:34;17.52;;;10.70;;
51358;SDS011;37448;51.588;7.248;2023-05-07T01:18:36;13.23;;;10.02;;
51358;SDS011;37448;51.588;7.248;2023-05-07T01:20:36;16.77;;;11.55;;
51358;SDS011;37448;51.588;7.248;2023-05-07T01:22:37;16.23;;;10.45;;
51358;SDS011;37448;51.588;7.248;2023-05-07T01:24:39;12.88;;;10.00;;
51358;SDS011;37448;51.588;7.248;2023-05-07T01:26:42;15.63;;;11.38;;
51358;SDS011;37448;51.588;7.248;2023-05-07T01:28:43;17.08;;;10.50;;
51358;SDS011;37448;51.588;7.248;2023-05-07T01:30:44;14.13;;;9.93;;
51358;SDS011;37448;51.588;7.248;2023-05-07T01:33:32;13.23;;;9.90;;
51358;SDS011;37448;51.588;7.248;2023-05-07T01:35:17;14.70;;;11.02;;
51358;SDS011;37448;51.588;7.248;2023-05-07T01:37:20;17.10;;;11.32;;
51358;SDS011;37448;51.588;7.248;2023-05-07T01:39:23;14.88;;;10.25;;
51358;SDS011;37448;51.588;7.248;2023-05-07T01:41:25;14.20;;;10.10;;
51358;SDS011;37448;51.588;7.248;2023-05-07T01:43:26;15.15;;;11.00;;
51358;SDS011;37448;51.588;7.248;2023-05-07T01:45:26;14.02;;;10.60;;
51358;SDS011;37448;51.588;7.248;2023-05-07T01:47:27;16.30;;;11.00;;
51358;SDS011;37448;51.588;7.248;2023-05-07T01:49:29;15.98;;;10.68;;
51358;SDS011;37448;51.588;7.248;2023-05-07T01:51:30;14.77;;;11.25;;
51358;SDS011;37448;51.588;7.248;2023-05-07T01:53:38;13.32;;;10.07;;
51358;SDS011;37448;51.588;7.248;2023-05-07T01:55:39;13.27;;;10.30;;
51358;SDS011;37448;51.588;7.248;2023-05-07T01:57:40;16.35;;;11.15;;
51358;SDS011;37448;51.588;7.248;2023-05-07T01:59:41;14.77;;;10.45;;
51358;SDS011;37448;51.588;7.248;2023-05-07T02:01:41;14.93;;;11.35;;
51358;SDS011;37448;51.588;7.248;2023-05-07T02:03:41;19.92;;;11.10;;
51358;SDS011;37448;51.588;7.248;2023-05-07T02:05:49;16.85;;;10.77;;
51358;SDS011;37448;51.588;7.248;2023-05-07T02:07:56;16.42;;;10.77;;
51358;SDS011;37448;51.588;7.248;2023-05-07T02:09:58;17.00;;;10.93;;
51358;SDS011;37448;51.588;7.248;2023-05-07T02:11:58;16.92;;;10.88;;
51358;SDS011;37448;51.588;7.248;2023-05-07T02:13:59;15.30;;;10.60;;
51358;SDS011;37448;51.588;7.248;2023-05-07T02:15:59;14.15;;;9.82;;
51358;SDS011;37448;51.588;7.248;2023-05-07T02:18:05;16.40;;;10.95;;
51358;SDS011;37448;51.588;7.248;2023-05-07T02:20:07;14.85;;;9.90;;
51358;SDS011;37448;51.588;7.248;2023-05-07T02:22:13;12.85;;;9.77;;
51358;SDS011;37448;51.588;7.248;2023-05-07T02:24:13;14.65;;;10.27;;
51358;SDS011;37448;51.588;7.248;2023-05-07T02:26:14;18.83;;;11.13;;
51358;SDS011;37448;51.588;7.248;2023-05-07T02:28:15;15.15;;;10.77;;
51358;SDS011;37448;51.588;7.248;2023-05-07T02:30:32;15.13;;;10.43;;
51358;SDS011;37448;51.588;7.248;2023-05-07T02:32:33;15.15;;;10.23;;
51358;SDS011;37448;51.588;7.248;2023-05-07T02:34:33;13.32;;;9.85;;
51358;SDS011;37448;51.588;7.248;2023-05-07T02:36:34;16.83;;;11.32;;
51358;SDS011;37448;51.588;7.248;2023-05-07T02:38:40;13.27;;;9.50;;
51358;SDS011;37448;51.588;7.248;2023-05-07T02:40:40;13.75;;;10.48;;
51358;SDS011;37448;51.588;7.248;2023-05-07T02:42:41;15.13;;;10.00;;
51358;SDS011;37448;51.588;7.248;2023-05-07T02:44:41;14.10;;;10.57;;
51358;SDS011;37448;51.588;7.248;2023-05-07T02:46:41;14.38;;;10.77;;
51358;SDS011;37448;51.588;7.248;2023-05-07T02:48:45;14.45;;;10.23;;
51358;SDS011;37448;51.588;7.248;2023-05-07T02:50:45;12.98;;;10.07;;
51358;SDS011;37448;51.588;7.248;2023-05-07T02:52:47;15.00;;;10.82;;
51358;SDS011;37448;51.588;7.248;2023-05-07T02:54:48;12.50;;;9.68;;
51358;SDS011;37448;51.588;7.248;2023-05-07T02:56:48;13.18;;;10.32;;
51358;SDS011;37448;51.588;7.248;2023-05-07T02:58:49;13.43;;;9.80;;
51358;SDS011;37448;51.588;7.248;2023-05-07T03:00:51;15.32;;;9.77;;
51358;SDS011;37448;51.588;7.248;2023-05-07T03:03:03;12.93;;;9.43;;
51358;SDS011;37448;51.588;7.248;2023-05-07T03:05:03;13.32;;;8.77;;
51358;SDS011;37448;51.588;7.248;2023-05-07T03:07:05;12.95;;;9.27;;
51358;SDS011;37448;51.588;7.248;2023-05-07T03:09:05;11.82;;;9.35;;
51358;SDS011;37448;51.588;7.248;2023-05-07T03:11:06;13.57;;;10.27;;
51358;SDS011;37448;51.588;7.248;2023-05-07T03:13:06;12.43;;;8.02;;
51358;SDS011;37448;51.588;7.248;2023-05-07T03:15:07;15.55;;;10.23;;
51358;SDS011;37448;51.588;7.248;2023-05-07T03:17:08;11.95;;;9.05;;
51358;SDS011;37448;51.588;7.248;2023-05-07T03:19:08;13.02;;;9.20;;
51358;SDS011;37448;51.588;7.248;2023-05-07T03:21:09;13.07;;;9.18;;
51358;SDS011;37448;51.588;7.248;2023-05-07T03:23:09;11.68;;;8.95;;
51358;SDS011;37448;51.588;7.248;2023-05-07T03:25:10;14.00;;;9.32;;
51358;SDS011;37448;51.588;7.248;2023-05-07T03:27:11;16.90;;;9.45;;
51358;SDS011;37448;51.588;7.248;2023-05-07T03:29:11;16.38;;;10.20;;
51358;SDS011;37448;51.588;7.248;2023-05-07T03:31:11;14.05;;;10.23;;
51358;SDS011;37448;51.588;7.248;2023-05-07T03:33:12;13.65;;;9.63;;
51358;SDS011;37448;51.588;7.248;2023-05-07T03:35:13;12.43;;;8.98;;
51358;SDS011;37448;51.588;7.248;2023-05-07T03:37:14;12.93;;;9.63;;
51358;SDS011;37448;51.588;7.248;2023-05-07T03:39:15;12.77;;;8.93;;
51358;SDS011;37448;51.588;7.248;2023-05-07T03:41:16;11.95;;;8.93;;
51358;SDS011;37448;51.588;7.248;2023-05-07T03:43:18;17.15;;;9.73;;
51358;SDS011;37448;51.588;7.248;2023-05-07T03:45:24;13.00;;;9.75;;
51358;SDS011;37448;51.588;7.248;2023-05-07T03:47:32;11.95;;;8.98;;
51358;SDS011;37448;51.588;7.248;2023-05-07T03:49:33;12.30;;;9.68;;
51358;SDS011;37448;51.588;7.248;2023-05-07T03:51:34;11.98;;;9.05;;
51358;SDS011;37448;51.588;7.248;2023-05-07T03:53:37;11.88;;;9.45;;
51358;SDS011;37448;51.588;7.248;2023-05-07T03:55:37;12.10;;;8.50;;
51358;SDS011;37448;51.588;7.248;2023-05-07T03:57:38;12.60;;;8.45;;
51358;SDS011;37448;51.588;7.248;2023-05-07T03:59:39;11.32;;;8.82;;
51358;SDS011;37448;51.588;7.248;2023-05-07T04:01:40;13.50;;;8.90;;
51358;SDS011;37448;51.588;7.248;2023-05-07T04:03:41;15.75;;;9.45;;
51358;SDS011;37448;51.588;7.248;2023-05-07T04:05:42;12.65;;;9.23;;
51358;SDS011;37448;51.588;7.248;2023-05-07T04:07:43;10.85;;;8.05;;
51358;SDS011;37448;51.588;7.248;2023-05-07T04:09:45;11.85;;;8.35;;
51358;SDS011;37448;51.588;7.248;2023-05-07T04:11:46;11.60;;;8.55;;
51358;SDS011;37448;51.588;7.248;2023-05-07T04:13:46;12.35;;;8.57;;
51358;SDS011;37448;51.588;7.248;2023-05-07T04:15:48;10.95;;;8.18;;
51358;SDS011;37448;51.588;7.248;2023-05-07T04:17:51;12.80;;;9.55;;
51358;SDS011;37448;51.588;7.248;2023-05-07T04:19:54;12.85;;;9.18;;
51358;SDS011;37448;51.588;7.248;2023-05-07T04:21:55;10.45;;;7.88;;
51358;SDS011;37448;51.588;7.248;2023-05-07T04:23:55;12.88;;;9.35;;
51358;SDS011;37448;51.588;7.248;2023-05-07T04:25:56;11.85;;;8.73;;
51358;SDS011;37448;51.588;7.248;2023-05-07T04:28:06;12.77;;;9.38;;
51358;SDS011;37448;51.588;7.248;2023-05-07T04:30:07;13.48;;;8.93;;
51358;SDS011;37448;51.588;7.248;2023-05-07T04:32:12;13.55;;;9.20;;
51358;SDS011;37448;51.588;7.248;2023-05-07T04:34:14;13.15;;;9.80;;
51358;SDS011;37448;51.588;7.248;2023-05-07T04:36:15;12.65;;;9.10;;
51358;SDS011;37448;51.588;7.248;2023-05-07T04:38:24;12.15;;;9.68;;
51358;SDS011;37448;51.588;7.248;2023-05-07T04:40:26;12.07;;;8.95;;
51358;SDS011;37448;51.588;7.248;2023-05-07T04:42:26;13.23;;;8.90;;
51358;SDS011;37448;51.588;7.248;2023-05-07T04:44:30;13.07;;;8.93;;
51358;SDS011;37448;51.588;7.248;2023-05-07T04:46:31;12.50;;;8.95;;
51358;SDS011;37448;51.588;7.248;2023-05-07T04:48:32;14.10;;;8.68;;
51358;SDS011;37448;51.588;7.248;2023-05-07T04:50:34;11.20;;;7.95;;
51358;SDS011;37448;51.588;7.248;2023-05-07T04:52:36;10.48;;;8.20;;
51358;SDS011;37448;51.588;7.248;2023-05-07T04:54:37;13.93;;;9.32;;
51358;SDS011;37448;51.588;7.248;2023-05-07T04:56:38;13.80;;;9.02;;
51358;SDS011;37448;51.588;7.248;2023-05-07T04:58:39;13.80;;;8.77;;
51358;SDS011;37448;51.588;7.248;2023-05-07T05:00:39;11.38;;;8.60;;
51358;SDS011;37448;51.588;7.248;2023-05-07T05:02:41;12.00;;;9.30;;
51358;SDS011;37448;51.588;7.248;2023-05-07T05:04:41;11.93;;;9.23;;
51358;SDS011;37448;51.588;7.248;2023-05-07T05:06:42;11.68;;;8.82;;
51358;SDS011;37448;51.588;7.248;2023-05-07T05:08:44;13.43;;;9.43;;
51358;SDS011;37448;51.588;7.248;2023-05-07T05:10:45;11.80;;;8.38;;
51358;SDS011;37448;51.588;7.248;2023-05-07T05:12:45;10.60;;;8.65;;
51358;SDS011;37448;51.588;7.248;2023-05-07T05:14:46;10.95;;;8.20;;
51358;SDS011;37448;51.588;7.248;2023-05-07T05:16:47;12.00;;;8.70;;
51358;SDS011;37448;51.588;7.248;2023-05-07T05:18:48;13.93;;;8.93;;
51358;SDS011;37448;51.588;7.248;2023-05-07T05:20:51;12.50;;;8.20;;
51358;SDS011;37448;51.588;7.248;2023-05-07T05:22:52;16.25;;;7.85;;
51358;SDS011;37448;51.588;7.248;2023-05-07T05:24:53;11.27;;;7.75;;
51358;SDS011;37448;51.588;7.248;2023-05-07T05:26:53;14.45;;;9.15;;
51358;SDS011;37448;51.588;7.248;2023-05-07T05:28:55;9.68;;;7.85;;
51358;SDS011;37448;51.588;7.248;2023-05-07T05:30:57;11.65;;;7.80;;
51358;SDS011;37448;51.588;7.248;2023-05-07T05:33:00;13.07;;;8.38;;
51358;SDS011;37448;51.588;7.248;2023-05-07T05:35:01;12.07;;;8.00;;
51358;SDS011;37448;51.588;7.248;2023-05-07T05:37:03;13.45;;;8.75;;
51358;SDS011;37448;51.588;7.248;2023-05-07T05:39:03;12.30;;;7.85;;
51358;SDS011;37448;51.588;7.248;2023-05-07T05:41:04;11.35;;;8.15;;
51358;SDS011;37448;51.588;7.248;2023-05-07T05:43:05;9.07;;;7.40;;
51358;SDS011;37448;51.588;7.248;2023-05-07T05:45:06;10.25;;;7.38;;
51358;SDS011;37448;51.588;7.248;2023-05-07T05:47:08;9.45;;;7.07;;
51358;SDS011;37448;51.588;7.248;2023-05-07T05:49:09;11.35;;;7.90;;
51358;SDS011;37448;51.588;7.248;2023-05-07T05:51:09;8.85;;;6.90;;
51358;SDS011;37448;51.588;7.248;2023-05-07T05:53:10;9.48;;;7.38;;
51358;SDS011;37448;51.588;7.248;2023-05-07T05:55:10;10.05;;;6.85;;
51358;SDS011;37448;51.588;7.248;2023-05-07T05:57:11;8.65;;;6.68;;
51358;SDS011;37448;51.588;7.248;2023-05-07T05:59:12;8.68;;;6.80;;
51358;SDS011;37448;51.588;7.248;2023-05-07T06:01:13;9.93;;;6.93;;
51358;SDS011;37448;51.588;7.248;2023-05-07T06:03:14;11.10;;;6.03;;
51358;SDS011;37448;51.588;7.248;2023-05-07T06:05:14;8.35;;;5.90;;
51358;SDS011;37448;51.588;7.248;2023-05-07T06:07:15;8.05;;;5.75;;
51358;SDS011;37448;51.588;7.248;2023-05-07T06:09:15;7.90;;;5.70;;
51358;SDS011;37448;51.588;7.248;2023-05-07T06:11:18;8.10;;;5.57;;
51358;SDS011;37448;51.588;7.248;2023-05-07T06:13:20;7.05;;;5.20;;
51358;SDS011;37448;51.588;7.248;2023-05-07T06:15:20;7.15;;;4.93;;
51358;SDS011;37448;51.588;7.248;2023-05-07T06:17:22;7.68;;;5.68;;
51358;SDS011;37448;51.588;7.248;2023-05-07T06:19:23;8.02;;;5.45;;
51358;SDS011;37448;51.588;7.248;2023-05-07T06:21:28;6.53;;;5.15;;
51358;SDS011;37448;51.588;7.248;2023-05-07T06:23:28;6.53;;;4.80;;
51358;SDS011;37448;51.588;7.248;2023-05-07T06:25:29;7.68;;;4.78;;
51358;SDS011;37448;51.588;7.248;2023-05-07T06:27:29;8.32;;;5.10;;
51358;SDS011;37448;51.588;7.248;2023-05-07T06:29:31;6.85;;;4.72;;
51358;SDS011;37448;51.588;7.248;2023-05-07T06:31:36;5.43;;;4.03;;
51358;SDS011;37448;51.588;7.248;2023-05-07T06:33:39;6.43;;;4.13;;
51358;SDS011;37448;51.588;7.248;2023-05-07T06:35:40;7.32;;;4.28;;
51358;SDS011;37448;51.588;7.248;2023-05-07T06:37:41;6.78;;;4.07;;
51358;SDS011;37448;51.588;7.248;2023-05-07T06:39:47;7.55;;;4.50;;
51358;SDS011;37448;51.588;7.248;2023-05-07T06:41:47;6.68;;;5.05;;
51358;SDS011;37448;51.588;7.248;2023-05-07T06:43:58;6.13;;;4.97;;
51358;SDS011;37448;51.588;7.248;2023-05-07T06:46:04;6.80;;;4.95;;
51358;SDS011;37448;51.588;7.248;2023-05-07T06:48:05;6.70;;;5.13;;
51358;SDS011;37448;51.588;7.248;2023-05-07T06:50:10;5.72;;;4.40;;
51358;SDS011;37448;51.588;7.248;2023-05-07T06:52:10;6.50;;;5.18;;
51358;SDS011;37448;51.588;7.248;2023-05-07T06:54:11;7.78;;;4.97;;
51358;SDS011;37448;51.588;7.248;2023-05-07T06:56:13;8.32;;;5.07;;
51358;SDS011;37448;51.588;7.248;2023-05-07T06:58:14;7.97;;;5.22;;
51358;SDS011;37448;51.588;7.248;2023-05-07T07:00:14;9.65;;;5.63;;
51358;SDS011;37448;51.588;7.248;2023-05-07T07:02:21;8.25;;;5.38;;
51358;SDS011;37448;51.588;7.248;2023-05-07T07:04:23;8.73;;;5.53;;
51358;SDS011;37448;51.588;7.248;2023-05-07T07:06:33;7.68;;;6.00;;
51358;SDS011;37448;51.588;7.248;2023-05-07T07:08:35;6.85;;;5.32;;
51358;SDS011;37448;51.588;7.248;2023-05-07T07:10:38;10.07;;;5.88;;
51358;SDS011;37448;51.588;7.248;2023-05-07T07:12:39;9.70;;;5.93;;
51358;SDS011;37448;51.588;7.248;2023-05-07T07:14:39;10.65;;;6.57;;
51358;SDS011;37448;51.588;7.248;2023-05-07T07:16:40;8.77;;;5.82;;
51358;SDS011;37448;51.588;7.248;2023-05-07T07:18:41;9.68;;;7.15;;
51358;SDS011;37448;51.588;7.248;2023-05-07T07:20:41;9.82;;;6.18;;
51358;SDS011;37448;51.588;7.248;2023-05-07T07:22:44;11.35;;;5.85;;
51358;SDS011;37448;51.588;7.248;2023-05-07T07:24:45;8.77;;;5.88;;
51358;SDS011;37448;51.588;7.248;2023-05-07T07:26:47;10.05;;;6.28;;
51358;SDS011;37448;51.588;7.248;2023-05-07T07:28:48;10.43;;;6.55;;
51358;SDS011;37448;51.588;7.248;2023-05-07T07:30:51;9.85;;;5.60;;
51358;SDS011;37448;51.588;7.248;2023-05-07T07:32:52;8.80;;;5.85;;
51358;SDS011;37448;51.588;7.248;2023-05-07T07:34:53;9.32;;;6.32;;
51358;SDS011;37448;51.588;7.248;2023-05-07T07:36:54;11.82;;;6.38;;
51358;SDS011;37448;51.588;7.248;2023-05-07T07:38:55;9.00;;;7.25;;
51358;SDS011;37448;51.588;7.248;2023-05-07T07:40:56;11.52;;;6.45;;
51358;SDS011;37448;51.588;7.248;2023-05-07T07:42:57;10.82;;;6.78;;
51358;SDS011;37448;51.588;7.248;2023-05-07T07:44:58;10.82;;;7.03;;
51358;SDS011;37448;51.588;7.248;2023-05-07T07:47:02;10.55;;;6.65;;
51358;SDS011;37448;51.588;7.248;2023-05-07T07:49:02;9.93;;;6.47;;
51358;SDS011;37448;51.588;7.248;2023-05-07T07:51:03;8.95;;;6.70;;
51358;SDS011;37448;51.588;7.248;2023-05-07T07:53:04;10.48;;;7.88;;
51358;SDS011;37448;51.588;7.248;2023-05-07T07:55:04;13.88;;;7.57;;
51358;SDS011;37448;51.588;7.248;2023-05-07T07:57:05;11.55;;;7.28;;
51358;SDS011;37448;51.588;7.248;2023-05-07T07:59:07;8.73;;;6.65;;
51358;SDS011;37448;51.588;7.248;2023-05-07T08:01:09;11.05;;;7.43;;
51358;SDS011;37448;51.588;7.248;2023-05-07T08:03:10;13.10;;;7.90;;
51358;SDS011;37448;51.588;7.248;2023-05-07T08:05:13;13.25;;;7.97;;
51358;SDS011;37448;51.588;7.248;2023-05-07T08:07:14;12.10;;;9.05;;
51358;SDS011;37448;51.588;7.248;2023-05-07T08:09:17;11.25;;;8.18;;
51358;SDS011;37448;51.588;7.248;2023-05-07T08:11:19;10.63;;;7.90;;
51358;SDS011;37448;51.588;7.248;2023-05-07T08:13:21;10.38;;;8.00;;
51358;SDS011;37448;51.588;7.248;2023-05-07T08:15:22;11.07;;;7.30;;
51358;SDS011;37448;51.588;7.248;2023-05-07T08:17:24;11.63;;;7.43;;
51358;SDS011;37448;51.588;7.248;2023-05-07T08:19:25;9.77;;;7.18;;
51358;SDS011;37448;51.588;7.248;2023-05-07T08:21:25;7.40;;;6.43;;
51358;SDS011;37448;51.588;7.248;2023-05-07T08:23:26;10.90;;;8.25;;
51358;SDS011;37448;51.588;7.248;2023-05-07T08:25:27;10.55;;;7.88;;
51358;SDS011;37448;51.588;7.248;2023-05-07T08:27:28;9.68;;;7.55;;
51358;SDS011;37448;51.588;7.248;2023-05-07T08:29:28;10.23;;;7.40;;
51358;SDS011;37448;51.588;7.248;2023-05-07T08:31:28;11.77;;;8.98;;
51358;SDS011;37448;51.588;7.248;2023-05-07T08:33:29;12.65;;;8.93;;
51358;SDS011;37448;51.588;7.248;2023-05-07T08:35:30;10.15;;;8.10;;
51358;SDS011;37448;51.588;7.248;2023-05-07T08:37:30;10.27;;;8.00;;
51358;SDS011;37448;51.588;7.248;2023-05-07T08:39:31;14.43;;;8.05;;
51358;SDS011;37448;51.588;7.248;2023-05-07T08:41:31;13.80;;;8.80;;
51358;SDS011;37448;51.588;7.248;2023-05-07T08:43:32;11.85;;;8.13;;
51358;SDS011;37448;51.588;7.248;2023-05-07T08:45:36;13.90;;;9.15;;
51358;SDS011;37448;51.588;7.248;2023-05-07T08:47:46;12.25;;;8.52;;
51358;SDS011;37448;51.588;7.248;2023-05-07T08:49:53;11.20;;;8.57;;
51358;SDS011;37448;51.588;7.248;2023-05-07T08:51:55;15.50;;;8.25;;
51358;SDS011;37448;51.588;7.248;2023-05-07T08:53:56;12.98;;;9.38;;
51358;SDS011;37448;51.588;7.248;2023-05-07T08:56:02;11.13;;;8.07;;
51358;SDS011;37448;51.588;7.248;2023-05-07T08:58:04;14.48;;;9.30;;
51358;SDS011;37448;51.588;7.248;2023-05-07T09:00:06;10.77;;;7.88;;
51358;SDS011;37448;51.588;7.248;2023-05-07T09:02:09;10.98;;;7.75;;
51358;SDS011;37448;51.588;7.248;2023-05-07T09:04:10;14.52;;;9.60;;
51358;SDS011;37448;51.588;7.248;2023-05-07T09:06:12;11.93;;;8.60;;
51358;SDS011;37448;51.588;7.248;2023-05-07T09:08:14;12.40;;;8.68;;
51358;SDS011;37448;51.588;7.248;2023-05-07T09:10:16;14.90;;;10.02;;
51358;SDS011;37448;51.588;7.248;2023-05-07T09:12:19;14.00;;;9.77;;
51358;SDS011;37448;51.588;7.248;2023-05-07T09:14:21;17.88;;;9.95;;
51358;SDS011;37448;51.588;7.248;2023-05-07T09:16:22;13.60;;;9.50;;
51358;SDS011;37448;51.588;7.248;2023-05-07T09:18:24;15.10;;;9.38;;
51358;SDS011;37448;51.588;7.248;2023-05-07T09:20:25;12.45;;;9.15;;
51358;SDS011;37448;51.588;7.248;2023-05-07T09:22:26;13.50;;;9.00;;
51358;SDS011;37448;51.588;7.248;2023-05-07T09:24:32;12.10;;;9.13;;
51358;SDS011;37448;51.588;7.248;2023-05-07T09:26:39;16.08;;;10.48;;
51358;SDS011;37448;51.588;7.248;2023-05-07T09:28:41;10.85;;;8.35;;
51358;SDS011;37448;51.588;7.248;2023-05-07T09:30:43;10.18;;;8.32;;
51358;SDS011;37448;51.588;7.248;2023-05-07T09:32:46;9.77;;;7.50;;
51358;SDS011;37448;51.588;7.248;2023-05-07T09:34:51;11.77;;;8.65;;
51358;SDS011;37448;51.588;7.248;2023-05-07T09:36:55;11.57;;;8.23;;
51358;SDS011;37448;51.588;7.248;2023-05-07T09:38:59;11.32;;;8.20;;
51358;SDS011;37448;51.588;7.248;2023-05-07T09:43:21;12.00;;;8.27;;
51358;SDS011;37448;51.588;7.248;2023-05-07T09:45:28;12.70;;;8.23;;
51358;SDS011;37448;51.588;7.248;2023-05-07T09:47:32;11.52;;;7.82;;
51358;SDS011;37448;51.588;7.248;2023-05-07T09:49:36;14.43;;;8.10;;
51358;SDS011;37448;51.588;7.248;2023-05-07T09:51:49;15.30;;;9.30;;
51358;SDS011;37448;51.588;7.248;2023-05-07T09:53:51;12.25;;;8.35;;
51358;SDS011;37448;51.588;7.248;2023-05-07T09:55:53;12.80;;;9.38;;
51358;SDS011;37448;51.588;7.248;2023-05-07T09:57:54;12.50;;;8.50;;
51358;SDS011;37448;51.588;7.248;2023-05-07T09:59:56;11.43;;;7.90;;
51358;SDS011;37448;51.588;7.248;2023-05-07T10:04:01;9.55;;;8.07;;
51358;SDS011;37448;51.588;7.248;2023-05-07T10:06:04;10.43;;;7.68;;
51358;SDS011;37448;51.588;7.248;2023-05-07T10:08:05;10.20;;;7.75;;
51358;SDS011;37448;51.588;7.248;2023-05-07T10:10:10;11.02;;;6.97;;
51358;SDS011;37448;51.588;7.248;2023-05-07T10:12:16;8.27;;;7.00;;
51358;SDS011;37448;51.588;7.248;2023-05-07T10:14:17;8.55;;;5.78;;
51358;SDS011;37448;51.588;7.248;2023-05-07T10:16:21;8.63;;;6.05;;
51358;SDS011;37448;51.588;7.248;2023-05-07T10:18:23;9.00;;;7.10;;
51358;SDS011;37448;51.588;7.248;2023-05-07T10:20:33;8.73;;;6.28;;
51358;SDS011;37448;51.588;7.248;2023-05-07T10:22:38;8.35;;;6.50;;
51358;SDS011;37448;51.588;7.248;2023-05-07T10:24:41;9.68;;;7.60;;
51358;SDS011;37448;51.588;7.248;2023-05-07T10:26:50;9.95;;;7.15;;
51358;SDS011;37448;51.588;7.248;2023-05-07T10:28:54;8.43;;;6.53;;
51358;SDS011;37448;51.588;7.248;2023-05-07T10:31:26;7.32;;;6.55;;
51358;SDS011;37448;51.588;7.248;2023-05-07T10:33:43;9.40;;;6.05;;
51358;SDS011;37448;51.588;7.248;2023-05-07T10:35:45;7.78;;;6.18;;
51358;SDS011;37448;51.588;7.248;2023-05-07T10:37:48;7.53;;;6.13;;
51358;SDS011;37448;51.588;7.248;2023-05-07T10:39:49;9.35;;;6.95;;
51358;SDS011;37448;51.588;7.248;2023-05-07T10:41:52;11.15;;;6.40;;
51358;SDS011;37448;51.588;7.248;2023-05-07T10:43:53;11.70;;;5.40;;
51358;SDS011;37448;51.588;7.248;2023-05-07T10:46:17;5.90;;;4.95;;
51358;SDS011;37448;51.588;7.248;2023-05-07T10:51:20;7.13;;;5.40;;
51358;SDS011;37448;51.588;7.248;2023-05-07T10:53:26;7.60;;;6.18;;
51358;SDS011;37448;51.588;7.248;2023-05-07T10:55:50;6.93;;;4.53;;
51358;SDS011;37448;51.588;7.248;2023-05-07T10:57:56;7.50;;;5.55;;
51358;SDS011;37448;51.588;7.248;2023-05-07T11:00:01;7.93;;;6.88;;
51358;SDS011;37448;51.588;7.248;2023-05-07T11:02:21;6.85;;;5.45;;
51358;SDS011;37448;51.588;7.248;2023-05-07T11:04:26;10.50;;;5.53;;
51358;SDS011;37448;51.588;7.248;2023-05-07T11:06:52;7.07;;;5.68;;
51358;SDS011;37448;51.588;7.248;2023-05-07T11:09:06;7.50;;;5.97;;
51358;SDS011;37448;51.588;7.248;2023-05-07T11:11:15;9.93;;;6.85;;
51358;SDS011;37448;51.588;7.248;2023-05-07T11:18:19;8.10;;;6.25;;
51358;SDS011;37448;51.588;7.248;2023-05-07T11:22:56;7.07;;;5.95;;
51358;SDS011;37448;51.588;7.248;2023-05-07T11:25:19;9.95;;;7.35;;
51358;SDS011;37448;51.588;7.248;2023-05-07T11:27:23;7.75;;;6.40;;
51358;SDS011;37448;51.588;7.248;2023-05-07T11:29:26;8.70;;;6.18;;
51358;SDS011;37448;51.588;7.248;2023-05-07T11:31:32;10.75;;;7.55;;
51358;SDS011;37448;51.588;7.248;2023-05-07T11:33:34;10.20;;;7.60;;
51358;SDS011;37448;51.588;7.248;2023-05-07T11:35:37;10.55;;;7.57;;
51358;SDS011;37448;51.588;7.248;2023-05-07T11:37:41;8.13;;;6.28;;
51358;SDS011;37448;51.588;7.248;2023-05-07T11:39:42;8.23;;;6.00;;
51358;SDS011;37448;51.588;7.248;2023-05-07T11:41:42;6.97;;;5.65;;
51358;SDS011;37448;51.588;7.248;2023-05-07T11:43:56;8.40;;;6.03;;
51358;SDS011;37448;51.588;7.248;2023-05-07T11:46:10;8.68;;;6.68;;
51358;SDS011;37448;51.588;7.248;2023-05-07T11:48:12;9.48;;;7.38;;
51358;SDS011;37448;51.588;7.248;2023-05-07T11:50:14;7.18;;;5.72;;
51358;SDS011;37448;51.588;7.248;2023-05-07T11:52:15;8.25;;;5.50;;
51358;SDS011;37448;51.588;7.248;2023-05-07T11:54:16;6.88;;;5.38;;
51358;SDS011;37448;51.588;7.248;2023-05-07T11:56:17;7.47;;;6.43;;
51358;SDS011;37448;51.588;7.248;2023-05-07T11:58:21;8.98;;;6.20;;
51358;SDS011;37448;51.588;7.248;2023-05-07T12:00:24;8.50;;;6.15;;
51358;SDS011;37448;51.588;7.248;2023-05-07T12:02:25;8.93;;;6.38;;
51358;SDS011;37448;51.588;7.248;2023-05-07T12:04:26;9.07;;;6.82;;
51358;SDS011;37448;51.588;7.248;2023-05-07T12:06:26;7.75;;;6.13;;
51358;SDS011;37448;51.588;7.248;2023-05-07T12:08:27;10.63;;;7.43;;
51358;SDS011;37448;51.588;7.248;2023-05-07T12:10:27;10.55;;;7.35;;
51358;SDS011;37448;51.588;7.248;2023-05-07T12:12:28;8.68;;;6.68;;
51358;SDS011;37448;51.588;7.248;2023-05-07T12:14:28;7.70;;;6.22;;
51358;SDS011;37448;51.588;7.248;2023-05-07T12:16:29;7.75;;;6.03;;
51358;SDS011;37448;51.588;7.248;2023-05-07T12:18:30;8.52;;;6.95;;
51358;SDS011;37448;51.588;7.248;2023-05-07T12:20:31;8.02;;;6.53;;
51358;SDS011;37448;51.588;7.248;2023-05-07T12:22:31;8.27;;;6.75;;
51358;SDS011;37448;51.588;7.248;2023-05-07T12:24:44;8.85;;;6.38;;